Bookmark and Share
Track history (hours):
 

Jeanie G

More information available from US FCC via Universal Licensing System and Coast Guard Vessel Documentation Center.

Last reported at 2014-Apr-22 16:12 UTC. Time now 2014-Apr-24 22:01 UTC.
Position N 29°46' W 091°38'.

MMSI: 366875010.

NotesDate/timePositionNaut miles runAvg speedWind from/ knotsBaromVisibWave heightAir tempDewpointWater temp
2014-Apr-22 16:12N 29°46' W 091°38'4 6.0
2014-Apr-22 15:33N 29°44' W 091°34'6 6.5
2014-Apr-22 14:33N 29°40' W 091°27'6 6.1
2014-Apr-22 13:33N 29°39' W 091°21'6 6.0
2014-Apr-22 12:34N 29°40' W 091°14'0 0.0
2014-Apr-22 11:34N 29°40' W 091°14'0 0.0
2014-Apr-22 10:33N 29°40' W 091°14'0 0.0
2014-Apr-22 09:34N 29°40' W 091°14'0 0.0
2014-Apr-22 08:33N 29°40' W 091°14'2 1.5
2014-Apr-22 07:33N 29°41' W 091°13'2 2.2
2014-Apr-22 06:34N 29°41' W 091°10'4 3.1
2014-Apr-22 05:22N 29°39' W 091°07'1 1.8
2014-Apr-22 04:32N 29°40' W 091°06'0 0.0
2014-Apr-22 03:33N 29°40' W 091°06'0 0.0
2014-Apr-22 02:34N 29°40' W 091°06'0 0.0
2014-Apr-22 01:33N 29°40' W 091°06'0 0.0
2014-Apr-22 00:33N 29°40' W 091°06'0 0.0
2014-Apr-21 23:34N 29°40' W 091°06'0 0.0
2014-Apr-21 22:33N 29°40' W 091°06'0 0.0
2014-Apr-21 21:33N 29°40' W 091°06'2 1.9
2014-Apr-21 20:33N 29°40' W 091°08'3 2.9
2014-Apr-21 19:34N 29°41' W 091°11'4 3.6
2014-Apr-21 18:34N 29°39' W 091°15'4 4.4
2014-Apr-21 17:33N 29°38' W 091°20'5 4.6
2014-Apr-21 16:33N 29°39' W 091°25'4 3.6
2014-Apr-21 15:21N 29°41' W 091°29'3 3.6
2014-Apr-21 14:31N 29°43' W 091°33'4 3.5
2014-Apr-21 13:30N 29°45' W 091°36'3 3.7
2014-Apr-21 12:33N 29°46' W 091°40'3 2.8
2014-Apr-21 11:32N 29°46' W 091°43'13 2.5
2014-Apr-21 06:32N 29°51' W 091°56'11 4.9
2014-Apr-21 04:17N 29°47' W 092°08'  

Dump ship's entire track history

sailing weather and tide predictions

Jeanie G — WDB2354 — position and weather